createdAt,value
2022-11-02T00:01:25.817Z,70.90
2022-11-02T00:03:52.347Z,70.65
2022-11-02T00:06:18.817Z,70.25
2022-11-02T00:08:45.391Z,70.30
2022-11-02T00:11:11.802Z,70.05
2022-11-02T00:13:38.203Z,70.01
2022-11-02T00:16:08.808Z,69.98
2022-11-02T00:18:36.508Z,70.04
2022-11-02T00:21:04.071Z,70.11
2022-11-02T00:23:31.904Z,70.11
2022-11-02T00:26:02.500Z,70.22
2022-11-02T00:28:30.658Z,70.32
2022-11-02T00:30:57.610Z,70.27
2022-11-02T00:33:24.068Z,70.40
2022-11-02T00:35:50.525Z,70.47
2022-11-02T00:38:16.976Z,70.52
2022-11-02T00:40:43.331Z,70.62
2022-11-02T00:43:09.757Z,70.88
2022-11-02T00:45:37.263Z,70.81
2022-11-02T00:48:04.647Z,70.86
2022-11-02T00:50:31.465Z,70.94
2022-11-02T00:52:57.899Z,71.21
2022-11-02T00:55:24.479Z,71.08
2022-11-02T01:00:41.559Z,71.08
2022-11-02T01:03:08.052Z,71.20
2022-11-02T01:05:34.425Z,71.35
2022-11-02T01:08:00.914Z,71.60
2022-11-02T01:10:27.481Z,71.64
2022-11-02T01:12:53.907Z,71.62
2022-11-02T01:15:20.338Z,71.67
2022-11-02T01:17:46.858Z,71.68
2022-11-02T01:20:13.353Z,71.71
2022-11-02T01:22:39.977Z,71.85
2022-11-02T01:25:06.933Z,71.78
2022-11-02T01:27:33.524Z,71.62
2022-11-02T01:29:59.854Z,71.60
2022-11-02T01:32:30.471Z,71.53
2022-11-02T01:34:57.043Z,71.50
2022-11-02T01:37:23.463Z,71.69
2022-11-02T01:39:49.794Z,71.77
2022-11-02T01:42:21.967Z,71.83
2022-11-02T01:44:48.622Z,72.15
2022-11-02T01:47:24.638Z,72.35
2022-11-02T01:49:57.043Z,72.56
2022-11-02T01:52:34.290Z,72.54
2022-11-02T01:55:19.602Z,72.42
2022-11-02T01:57:51.909Z,72.63
2022-11-02T02:00:19.105Z,72.69
2022-11-02T02:02:52.604Z,72.84
2022-11-02T02:05:20.890Z,73.07
2022-11-02T02:07:47.868Z,73.26
2022-11-02T02:10:14.587Z,73.20
2022-11-02T02:12:42.734Z,73.56
2022-11-02T02:15:10.571Z,73.73
2022-11-02T02:17:46.097Z,74.00
2022-11-02T02:20:49.879Z,73.99
2022-11-02T02:23:40.417Z,74.04
2022-11-02T02:26:18.651Z,74.27
2022-11-02T02:28:57.888Z,74.37
2022-11-02T02:31:38.197Z,74.58
2022-11-02T02:34:15.638Z,74.58
2022-11-02T02:37:03.882Z,74.46
2022-11-02T02:39:43.143Z,74.32
2022-11-02T02:42:21.552Z,74.47
2022-11-02T02:45:19.345Z,74.65
2022-11-02T02:47:54.302Z,74.88
2022-11-02T02:50:28.459Z,75.07
2022-11-02T02:52:56.167Z,75.37
2022-11-02T02:55:27.837Z,75.30
2022-11-02T02:57:55.952Z,75.72
2022-11-02T03:00:22.364Z,75.70
2022-11-02T03:03:02.189Z,75.96
2022-11-02T03:05:34.671Z,76.00
2022-11-02T03:08:06.604Z,76.30
2022-11-02T03:10:42.469Z,76.10
2022-11-02T03:13:17.211Z,76.13
2022-11-02T03:15:59.723Z,76.05
2022-11-02T03:18:44.394Z,76.14
2022-11-02T03:21:34.594Z,76.23
2022-11-02T03:24:09.351Z,76.01
2022-11-02T03:27:06.945Z,76.16
2022-11-02T03:29:57.523Z,76.14
2022-11-02T03:32:48.678Z,76.29
2022-11-02T03:36:01.107Z,76.35
2022-11-02T03:38:42.156Z,76.35
2022-11-02T03:41:09.186Z,76.44
2022-11-02T03:43:37.906Z,76.22
2022-11-02T03:46:08.630Z,76.88
2022-11-02T03:48:42.535Z,77.62
2022-11-02T03:51:13.337Z,78.50
2022-11-02T03:53:47.871Z,78.60
2022-11-02T03:56:24.979Z,78.66
2022-11-02T03:58:51.495Z,78.49
2022-11-02T04:01:19.923Z,78.19
2022-11-02T04:03:47.288Z,78.35
2022-11-02T04:06:14.288Z,78.05
2022-11-02T04:08:43.833Z,77.46
2022-11-02T04:11:29.127Z,77.67
2022-11-02T04:14:13.967Z,77.71
2022-11-02T04:16:40.552Z,77.65
2022-11-02T04:19:25.726Z,78.00
2022-11-02T04:22:10.542Z,78.42
2022-11-02T04:24:55.346Z,77.84
2022-11-02T04:27:21.743Z,77.60
2022-11-02T04:29:48.711Z,77.87
2022-11-02T04:32:15.409Z,77.63
2022-11-02T04:34:41.771Z,76.98
2022-11-02T04:37:28.148Z,76.26
2022-11-02T04:39:54.553Z,75.81
2022-11-02T04:42:20.954Z,76.00
2022-11-02T04:44:47.316Z,75.03
2022-11-02T04:47:13.726Z,73.04
2022-11-02T04:49:40.051Z,73.03
2022-11-02T04:52:06.426Z,71.96
2022-11-02T04:54:33.355Z,70.18
2022-11-02T04:56:59.717Z,70.19
2022-11-02T04:59:27.316Z,69.72
2022-11-02T05:01:53.902Z,70.08
2022-11-02T05:04:20.321Z,70.12
2022-11-02T05:06:46.706Z,68.43
2022-11-02T05:09:13.082Z,68.39
2022-11-02T05:11:39.467Z,68.36
2022-11-02T05:14:05.845Z,68.38
2022-11-02T05:16:32.234Z,68.36
2022-11-02T05:18:58.561Z,68.84
2022-11-02T05:21:24.987Z,68.86
2022-11-02T05:23:51.375Z,68.81
2022-11-02T05:26:20.892Z,68.60
2022-11-02T05:28:47.311Z,68.50
2022-11-02T05:31:13.775Z,68.95
2022-11-02T05:33:43.188Z,69.25
2022-11-02T05:36:09.923Z,69.34
2022-11-02T05:38:36.406Z,69.55
2022-11-02T05:41:02.960Z,69.46
2022-11-02T05:43:29.467Z,69.10
2022-11-02T05:46:00.911Z,68.64
2022-11-02T05:48:30.672Z,68.77
2022-11-02T05:50:58.862Z,69.11
2022-11-02T05:53:26.766Z,69.08
2022-11-02T05:55:58.228Z,68.62
2022-11-02T05:58:25.144Z,68.64
2022-11-02T06:00:51.502Z,69.06
2022-11-02T06:03:18.315Z,69.02
2022-11-02T06:05:45.172Z,68.96
2022-11-02T06:08:11.783Z,68.94
2022-11-02T06:10:38.550Z,68.77
2022-11-02T06:13:05.313Z,68.74
2022-11-02T06:15:32.618Z,68.47
2022-11-02T06:17:59.933Z,68.79
2022-11-02T06:20:26.398Z,69.44
2022-11-02T06:22:52.809Z,69.14
2022-11-02T06:25:19.336Z,68.90
2022-11-02T06:27:53.397Z,69.18
2022-11-02T06:30:19.781Z,69.38
2022-11-02T06:32:51.465Z,69.46
2022-11-02T06:35:20.400Z,69.58
2022-11-02T06:37:47.101Z,69.21
2022-11-02T06:40:14.421Z,69.13
2022-11-02T06:42:45.348Z,69.67
2022-11-02T06:45:23.845Z,69.76
2022-11-02T06:47:50.316Z,70.07
2022-11-02T06:50:17.692Z,69.94
2022-11-02T06:52:45.629Z,69.47
2022-11-02T06:55:13.795Z,69.84
2022-11-02T06:57:41.377Z,69.78
2022-11-02T07:00:14.483Z,69.42
2022-11-02T07:02:45.656Z,69.54
2022-11-02T07:05:15.242Z,69.65
2022-11-02T07:07:41.765Z,69.21
2022-11-02T07:10:10.490Z,69.49
2022-11-02T07:12:37.469Z,69.33
2022-11-02T07:15:06.023Z,69.29
2022-11-02T07:17:32.535Z,69.04
2022-11-02T07:19:59.001Z,69.31
2022-11-02T07:22:25.816Z,69.07
2022-11-02T07:24:52.289Z,69.24
2022-11-02T07:27:20.634Z,69.45
2022-11-02T07:32:40.496Z,69.31
2022-11-02T07:35:08.915Z,69.27
2022-11-02T07:37:35.751Z,69.53
2022-11-02T07:40:02.226Z,69.64
2022-11-02T07:42:28.698Z,69.18
2022-11-02T07:44:55.095Z,69.58
2022-11-02T07:47:21.480Z,69.12
2022-11-02T07:49:47.882Z,68.94
2022-11-02T07:52:14.516Z,68.49
2022-11-02T07:54:44.600Z,68.88
2022-11-02T07:57:11.332Z,68.75
2022-11-02T07:59:37.745Z,69.26
2022-11-02T08:02:04.162Z,68.58
2022-11-02T08:04:30.572Z,67.41
2022-11-02T08:06:58.484Z,67.87
2022-11-02T08:09:24.934Z,67.15
2022-11-02T08:11:51.652Z,66.78
2022-11-02T08:14:18.264Z,66.62
2022-11-02T08:16:45.162Z,66.11
2022-11-02T08:19:11.538Z,66.34
2022-11-02T08:21:38.090Z,66.62
2022-11-02T08:24:04.917Z,66.72
2022-11-02T08:26:31.309Z,66.66
2022-11-02T08:28:57.884Z,66.03
2022-11-02T08:31:24.372Z,65.56
2022-11-02T08:33:50.980Z,65.96
2022-11-02T08:36:17.377Z,66.41
2022-11-02T08:38:43.775Z,67.01
2022-11-02T08:41:10.235Z,66.30
2022-11-02T08:43:36.689Z,66.92
2022-11-02T08:46:19.137Z,67.56
2022-11-02T08:48:46.200Z,66.88
2022-11-02T08:51:13.117Z,67.74
2022-11-02T08:53:39.658Z,66.80
2022-11-02T08:56:06.549Z,64.73
2022-11-02T08:58:32.927Z,65.89
2022-11-02T09:00:59.417Z,66.22
2022-11-02T09:03:27.240Z,65.13
2022-11-02T09:05:58.994Z,64.40
2022-11-02T09:08:27.616Z,65.71
2022-11-02T09:10:58.871Z,65.23
2022-11-02T09:13:25.669Z,65.09
2022-11-02T09:15:54.649Z,63.37
2022-11-02T09:18:21.790Z,63.96
2022-11-02T09:20:48.945Z,63.89
2022-11-02T09:23:16.203Z,62.43
2022-11-02T09:25:42.890Z,61.60
2022-11-02T09:28:09.748Z,63.05
2022-11-02T09:30:36.510Z,62.61
2022-11-02T09:33:05.539Z,62.62
2022-11-02T09:35:36.876Z,62.69
2022-11-02T09:38:03.654Z,62.13
2022-11-02T09:40:44.998Z,63.32
2022-11-02T09:43:41.778Z,62.03
2022-11-02T09:46:21.826Z,61.94
2022-11-02T09:48:55.942Z,59.96
2022-11-02T09:51:42.160Z,61.59
2022-11-02T09:54:19.627Z,60.30
2022-11-02T09:56:47.995Z,59.74
2022-11-02T09:59:19.805Z,58.85
2022-11-02T10:01:58.466Z,59.52
2022-11-02T10:04:30.889Z,58.78
2022-11-02T10:07:16.249Z,58.24
2022-11-02T10:10:02.299Z,56.70
2022-11-02T10:12:35.168Z,56.40
2022-11-02T10:15:14.081Z,55.69
2022-11-02T10:17:42.198Z,55.54
2022-11-02T10:20:24.745Z,56.15
2022-11-02T10:22:53.710Z,56.33
2022-11-02T10:25:20.111Z,57.54
2022-11-02T10:27:53.084Z,56.14
2022-11-02T10:30:21.335Z,55.59
2022-11-02T10:32:52.649Z,56.53
2022-11-02T10:35:41.071Z,54.81
2022-11-02T10:38:31.832Z,53.16
2022-11-02T10:41:33.527Z,51.39
2022-11-02T10:44:34.111Z,51.60
2022-11-02T10:47:03.665Z,51.47
2022-11-02T10:49:36.247Z,51.81
2022-11-02T10:52:02.702Z,51.04
2022-11-02T10:54:33.190Z,50.00
2022-11-02T10:57:11.714Z,49.69
2022-11-02T10:59:38.271Z,50.03
2022-11-02T11:02:09.980Z,49.22
2022-11-02T11:04:36.331Z,51.66
2022-11-02T11:07:12.582Z,48.75
2022-11-02T11:09:51.495Z,48.47
2022-11-02T11:12:23.505Z,50.53
2022-11-02T11:20:35.413Z,46.64
2022-11-02T11:23:22.328Z,46.04
2022-11-02T11:26:03.368Z,49.28
2022-11-02T11:28:36.800Z,48.94
2022-11-02T11:31:08.825Z,47.03
2022-11-02T11:33:51.697Z,46.91
2022-11-02T11:36:28.147Z,50.74
2022-11-02T11:38:59.415Z,51.30
2022-11-02T11:41:26.255Z,49.58
2022-11-02T11:43:53.552Z,51.41
2022-11-02T11:46:20.262Z,49.05
2022-11-02T11:48:59.743Z,50.32
2022-11-02T11:51:31.197Z,49.29
2022-11-02T11:54:24.162Z,49.96
2022-11-02T11:56:56.638Z,48.20
2022-11-02T11:59:22.950Z,46.84
2022-11-02T12:01:54.918Z,48.20
2022-11-02T12:04:37.635Z,49.27
2022-11-02T12:07:25.796Z,48.34
2022-11-02T12:10:03.054Z,47.78
2022-11-02T12:13:03.670Z,47.09
2022-11-02T12:15:52.140Z,47.67
2022-11-02T12:18:45.011Z,46.06
2022-11-02T12:21:39.023Z,45.85
2022-11-02T12:24:11.588Z,49.08
2022-11-02T12:26:47.334Z,47.73
2022-11-02T12:29:44.687Z,46.73
2022-11-02T12:32:30.026Z,45.83
2022-11-02T12:35:33.610Z,49.13
2022-11-02T12:38:28.685Z,46.03
2022-11-02T12:40:55.008Z,47.31
2022-11-02T12:43:51.941Z,45.80
2022-11-02T12:46:47.716Z,45.59
2022-11-02T12:49:19.044Z,44.25
2022-11-02T12:52:00.953Z,44.52
2022-11-02T12:54:41.643Z,45.09
2022-11-02T12:57:15.187Z,47.25
2022-11-02T12:59:43.904Z,47.57
2022-11-02T13:02:26.830Z,47.29
2022-11-02T13:05:10.040Z,49.11
2022-11-02T13:07:42.838Z,49.27
2022-11-02T13:10:24.304Z,50.79
2022-11-02T13:12:59.706Z,49.82
2022-11-02T13:15:28.372Z,51.01
2022-11-02T13:17:59.475Z,50.23
2022-11-02T13:20:39.946Z,50.28
2022-11-02T13:23:34.380Z,49.10
2022-11-02T13:26:06.446Z,49.48
2022-11-02T13:28:47.183Z,51.21
2022-11-02T13:32:06.207Z,51.47
2022-11-02T13:34:40.163Z,52.39
2022-11-02T13:37:24.872Z,52.39
2022-11-02T13:39:56.412Z,53.54
2022-11-02T13:42:42.429Z,53.45
2022-11-02T13:45:15.807Z,51.62
2022-11-02T13:47:51.512Z,52.08
2022-11-02T13:50:21.957Z,51.52
2022-11-02T13:52:56.380Z,51.22
2022-11-02T13:55:28.306Z,51.79
2022-11-02T13:57:59.464Z,51.83
2022-11-02T14:00:25.763Z,51.88
2022-11-02T14:03:00.713Z,50.03
2022-11-02T14:05:44.961Z,49.20
2022-11-02T14:08:19.960Z,49.66
2022-11-02T14:11:03.706Z,48.67
2022-11-02T14:13:56.716Z,49.60
2022-11-02T14:16:46.372Z,50.57
2022-11-02T14:19:48.554Z,49.76
2022-11-02T14:22:17.511Z,50.32
2022-11-02T14:24:43.963Z,50.03
2022-11-02T14:27:10.314Z,50.40
2022-11-02T14:29:36.734Z,50.79
2022-11-02T14:32:24.845Z,50.64
2022-11-02T14:35:29.268Z,50.69
2022-11-02T14:38:14.420Z,50.81
2022-11-02T14:40:55.982Z,50.54
2022-11-02T14:43:44.220Z,49.95
2022-11-02T14:46:26.933Z,51.37
2022-11-02T14:48:57.364Z,50.78
2022-11-02T14:51:25.295Z,51.35
2022-11-02T14:54:32.368Z,51.54
2022-11-02T14:57:02.710Z,52.27
2022-11-02T14:59:37.231Z,52.40
2022-11-02T15:02:27.879Z,52.40
2022-11-02T15:05:03.916Z,52.70
2022-11-02T15:07:37.659Z,52.73
2022-11-02T15:10:15.672Z,52.93
2022-11-02T15:12:44.669Z,53.30
2022-11-02T15:15:36.610Z,53.59
2022-11-02T15:18:27.806Z,53.78
2022-11-02T15:21:19.350Z,53.79
2022-11-02T15:24:16.721Z,54.06
2022-11-02T15:26:52.212Z,54.54
2022-11-02T15:29:21.810Z,54.62
2022-11-02T15:31:55.851Z,55.20
2022-11-02T15:34:31.284Z,55.07
2022-11-02T15:37:00.331Z,55.51
2022-11-02T15:39:26.890Z,55.53
2022-11-02T15:42:41.499Z,55.77
2022-11-02T15:45:59.368Z,55.95
2022-11-02T15:48:48.556Z,55.11
2022-11-02T15:51:48.673Z,55.30
2022-11-02T15:54:21.249Z,55.72
2022-11-02T15:57:13.457Z,56.01
2022-11-02T16:00:01.177Z,55.73
2022-11-02T16:02:38.129Z,55.09
2022-11-02T16:05:06.175Z,55.54
2022-11-02T16:07:50.242Z,55.58
2022-11-02T16:10:24.726Z,55.31
2022-11-02T16:12:57.840Z,54.64
2022-11-02T16:15:24.354Z,54.89
2022-11-02T16:17:50.929Z,55.30
2022-11-02T16:20:20.808Z,55.35
2022-11-02T16:23:12.947Z,55.81
2022-11-02T16:26:00.042Z,56.12
2022-11-02T16:28:29.137Z,55.89
2022-11-02T16:30:59.515Z,56.53
2022-11-02T16:33:28.828Z,56.59
2022-11-02T16:35:55.763Z,56.73
2022-11-02T16:38:23.300Z,56.85
2022-11-02T16:40:51.555Z,56.65
2022-11-02T16:43:26.613Z,57.05
2022-11-02T16:46:00.200Z,57.75
2022-11-02T16:48:29.428Z,57.86
2022-11-02T16:51:14.612Z,58.51
2022-11-02T16:53:42.660Z,58.35
2022-11-02T16:56:15.126Z,58.47
2022-11-02T16:58:59.684Z,58.91
2022-11-02T17:01:29.729Z,58.94
2022-11-02T17:03:56.437Z,59.22
2022-11-02T17:06:22.987Z,59.49
2022-11-02T17:08:55.852Z,60.03
2022-11-02T17:11:23.210Z,60.35
2022-11-02T17:13:53.613Z,60.94
2022-11-02T17:16:20.559Z,61.08
2022-11-02T17:18:47.491Z,61.04
2022-11-02T17:21:17.036Z,61.38
2022-11-02T17:23:45.721Z,61.43
2022-11-02T17:26:35.436Z,61.75
2022-11-02T17:29:23.357Z,62.06
2022-11-02T17:32:00.624Z,62.47
2022-11-02T17:34:28.709Z,62.53
2022-11-02T17:36:55.533Z,62.56
2022-11-02T17:39:22.016Z,62.78
2022-11-02T17:42:12.765Z,62.84
2022-11-02T17:44:39.470Z,63.36
2022-11-02T17:47:10.945Z,63.82
2022-11-02T17:49:37.391Z,63.91
2022-11-02T17:52:04.052Z,63.98
2022-11-02T17:54:31.442Z,63.88
2022-11-02T17:56:59.039Z,64.16
2022-11-02T17:59:25.650Z,64.14
2022-11-02T18:01:52.339Z,64.43
2022-11-02T18:04:18.850Z,64.55
2022-11-02T18:06:45.253Z,64.29
2022-11-02T18:09:11.657Z,64.52
2022-11-02T18:11:38.156Z,64.78
2022-11-02T18:14:04.625Z,64.78
2022-11-02T18:16:32.454Z,65.42
2022-11-02T18:18:58.904Z,65.99
2022-11-02T18:21:25.415Z,66.00
2022-11-02T18:23:52.744Z,65.89
2022-11-02T18:26:19.192Z,66.06
2022-11-02T18:28:45.661Z,66.03
2022-11-02T18:31:12.159Z,66.36
2022-11-02T18:33:38.595Z,66.52
2022-11-02T18:36:06.957Z,66.74
2022-11-02T18:38:33.618Z,66.73
2022-11-02T18:41:24.726Z,67.08
2022-11-02T18:43:51.110Z,66.98
2022-11-02T18:46:17.651Z,67.17
2022-11-02T18:48:44.096Z,67.26
2022-11-02T18:51:11.223Z,67.36
2022-11-02T18:53:38.222Z,67.48
2022-11-02T18:57:36.123Z,67.70
2022-11-02T19:00:03.940Z,68.18
2022-11-02T19:02:30.578Z,68.54
2022-11-02T19:04:57.253Z,68.87
2022-11-02T19:07:42.283Z,68.97
2022-11-02T19:10:09.781Z,69.32
2022-11-02T19:12:36.691Z,69.61
2022-11-02T19:15:04.005Z,69.81
2022-11-02T19:17:30.554Z,70.02
2022-11-02T19:19:57.252Z,69.83
2022-11-02T19:22:25.598Z,70.04
2022-11-02T19:24:52.548Z,70.22
2022-11-02T19:27:24.140Z,70.46
2022-11-02T19:29:51.205Z,70.70
2022-11-02T19:32:18.773Z,70.74
2022-11-02T19:34:45.565Z,70.71
2022-11-02T19:37:12.308Z,70.99
2022-11-02T19:39:38.985Z,71.02
2022-11-02T19:42:07.351Z,71.28
2022-11-02T19:44:38.151Z,71.58
2022-11-02T19:47:08.894Z,71.91
2022-11-02T19:49:35.490Z,71.88
2022-11-02T19:52:02.157Z,72.14
2022-11-02T19:54:28.687Z,72.41
2022-11-02T19:56:55.246Z,72.71
2022-11-02T19:59:22.538Z,72.73
2022-11-02T20:01:50.694Z,73.01
2022-11-02T20:04:17.777Z,73.30
2022-11-02T20:06:44.746Z,73.69
2022-11-02T20:09:16.319Z,73.50
2022-11-02T20:11:45.141Z,73.88
2022-11-02T20:14:13.061Z,73.80
2022-11-02T20:16:40.175Z,73.76
2022-11-02T20:19:07.331Z,73.95
2022-11-02T20:21:39.819Z,74.13
2022-11-02T20:24:09.798Z,73.90
2022-11-02T20:26:38.828Z,74.02
2022-11-02T20:29:06.309Z,74.11
2022-11-02T20:31:35.839Z,73.89
2022-11-02T20:34:03.563Z,74.10
2022-11-02T20:36:30.150Z,74.25
2022-11-02T20:38:56.957Z,74.45
2022-11-02T20:41:24.514Z,74.20
2022-11-02T20:43:53.656Z,74.15
2022-11-02T20:46:37.878Z,74.38
2022-11-02T20:49:20.503Z,74.28
2022-11-02T20:51:53.375Z,74.70
2022-11-02T20:54:21.521Z,74.69
2022-11-02T20:56:49.733Z,74.80
2022-11-02T20:59:16.574Z,74.90
2022-11-02T21:01:43.807Z,74.66
2022-11-02T21:04:15.269Z,74.63
2022-11-02T21:06:46.314Z,74.38
2022-11-02T21:09:12.947Z,74.27
2022-11-02T21:11:58.677Z,74.82
2022-11-02T21:14:25.310Z,75.18
2022-11-02T21:16:51.821Z,75.24
2022-11-02T21:19:18.695Z,75.37
2022-11-02T21:21:45.328Z,75.59
2022-11-02T21:24:12.220Z,75.54
2022-11-02T21:26:39.026Z,75.25
2022-11-02T21:29:05.612Z,75.03
2022-11-02T21:31:32.256Z,75.04
2022-11-02T21:33:58.998Z,75.12
2022-11-02T21:36:26.096Z,74.98
2022-11-02T21:38:52.692Z,74.89
2022-11-02T21:41:22.237Z,75.05
2022-11-02T21:43:51.932Z,75.18
2022-11-02T21:46:19.838Z,75.45
2022-11-02T21:48:47.278Z,75.57
2022-11-02T21:51:16.363Z,75.74
2022-11-02T21:53:44.899Z,75.82
2022-11-02T21:56:13.530Z,75.96
2022-11-02T21:58:44.774Z,75.60
2022-11-02T22:01:38.047Z,75.95
2022-11-02T22:04:05.827Z,76.00
2022-11-02T22:06:35.842Z,76.02
2022-11-02T22:09:02.364Z,75.56
2022-11-02T22:11:29.465Z,75.19
2022-11-02T22:13:58.510Z,74.89
2022-11-02T22:16:28.293Z,74.46
2022-11-02T22:19:00.069Z,74.46
2022-11-02T22:21:28.895Z,74.07
2022-11-02T22:23:56.492Z,73.81
2022-11-02T22:26:25.820Z,73.69
2022-11-02T22:29:00.754Z,73.61
2022-11-02T22:31:30.352Z,73.52
2022-11-02T22:33:59.229Z,73.38
2022-11-02T22:36:30.731Z,72.93
2022-11-02T22:38:59.053Z,73.07
2022-11-02T22:41:43.109Z,72.89
2022-11-02T22:44:16.648Z,72.86
2022-11-02T22:46:45.303Z,72.57
2022-11-02T22:49:14.058Z,72.65
2022-11-02T22:51:43.006Z,72.88
2022-11-02T22:54:11.784Z,73.18
2022-11-02T22:56:38.292Z,72.95
2022-11-02T22:59:06.373Z,73.35
2022-11-02T23:01:34.522Z,73.63
2022-11-02T23:04:01.959Z,73.79
2022-11-02T23:06:29.319Z,73.92
2022-11-02T23:08:57.674Z,74.07
2022-11-02T23:11:30.282Z,74.18
2022-11-02T23:13:58.120Z,74.24
2022-11-02T23:16:30.819Z,74.49
2022-11-02T23:19:28.764Z,74.53
2022-11-02T23:22:18.257Z,75.06
2022-11-02T23:25:12.285Z,75.27
2022-11-02T23:28:15.009Z,75.38
2022-11-02T23:31:01.193Z,75.75
2022-11-02T23:33:33.068Z,75.57
2022-11-02T23:36:13.234Z,75.46
2022-11-02T23:39:03.077Z,75.63
2022-11-02T23:41:31.044Z,75.84
2022-11-02T23:44:14.414Z,75.85
2022-11-02T23:46:42.737Z,76.54
2022-11-02T23:49:09.298Z,76.30
2022-11-02T23:51:54.564Z,76.13
2022-11-02T23:54:40.399Z,76.04
2022-11-02T23:57:07.200Z,76.13
2022-11-02T23:59:33.686Z,76.12
